Time;durP1;ratioP1;P1;durP2;ratioP2;P2;SDS_P1;SDS_P2;PMS_P1;PMS_P2;Temp;Humidity;BMP_temperature;BMP_pressure;BME280_temperature;BME280_humidity;BME280_pressure;Samples;Min_cycle;Max_cycle;Signal;HPM_P1;HPM_P2
2021/05/29 00:00:44;;;;;;;9.77;7.45;;;;;;;17.93;86.92;101323.94;5015342;28;20037;-86
2021/05/29 00:03:09;;;;;;;11.85;8.65;;;;;;;18.07;86.09;101320.97;5014952;28;20022;-86
2021/05/29 00:05:35;;;;;;;12.73;8.63;;;;;;;17.94;86.31;101325.63;5016698;28;20036;-86
2021/05/29 00:08:00;;;;;;;8.85;7.93;;;;;;;17.88;86.73;101319.00;5015556;28;20429;-86
2021/05/29 00:10:25;;;;;;;11.38;8.98;;;;;;;17.88;87.16;101328.81;5015119;28;20029;-86
2021/05/29 00:12:51;;;;;;;11.57;9.82;;;;;;;17.87;87.28;101327.97;5019588;28;20518;-86
2021/05/29 00:15:16;;;;;;;10.75;8.82;;;;;;;18.11;85.93;101333.00;5034920;28;20108;-86
2021/05/29 00:17:42;;;;;;;11.60;9.40;;;;;;;18.18;85.00;101339.47;5033409;28;20057;-86
2021/05/29 00:20:08;;;;;;;11.00;9.45;;;;;;;18.14;85.66;101338.03;5021627;28;20034;-86
2021/05/29 00:22:34;;;;;;;10.55;9.45;;;;;;;18.11;86.04;101341.00;5014786;28;20029;-86
2021/05/29 00:24:59;;;;;;;9.50;8.60;;;;;;;17.91;86.93;101337.38;5015053;28;20026;-86
2021/05/29 00:27:25;;;;;;;14.20;9.63;;;;;;;17.84;86.89;101334.34;5033771;28;20041;-86
2021/05/29 00:29:50;;;;;;;13.63;10.57;;;;;;;18.07;86.13;101338.69;5030149;28;20048;-86
2021/05/29 00:32:15;;;;;;;11.82;10.45;;;;;;;18.00;85.91;101333.06;5014917;28;20049;-86
2021/05/29 00:34:41;;;;;;;10.88;9.77;;;;;;;17.88;86.98;101337.59;5025483;28;20075;-86
2021/05/29 00:37:06;;;;;;;10.95;9.60;;;;;;;18.00;86.71;101335.72;5032604;28;20029;-86
2021/05/29 00:39:32;;;;;;;9.85;8.85;;;;;;;17.83;87.39;101329.13;5034018;28;20028;-86
2021/05/29 00:41:57;;;;;;;10.95;9.60;;;;;;;17.80;87.74;101332.91;5034141;28;20421;-86
2021/05/29 00:44:22;;;;;;;11.63;9.35;;;;;;;17.80;87.83;101330.25;5031889;28;20097;-86
2021/05/29 00:46:48;;;;;;;15.13;10.73;;;;;;;17.82;86.75;101333.63;5014510;28;20017;-86
2021/05/29 00:49:13;;;;;;;14.10;11.50;;;;;;;17.77;86.82;101330.53;5014289;28;20369;-86
2021/05/29 00:51:39;;;;;;;13.70;11.50;;;;;;;17.73;86.45;101326.44;5015264;28;20031;-86
2021/05/29 00:54:06;;;;;;;12.98;9.57;;;;;;;17.80;86.88;101332.91;5025206;28;20442;-86
2021/05/29 00:56:31;;;;;;;11.60;9.25;;;;;;;17.72;87.44;101326.56;5033934;28;20025;-86
2021/05/29 00:58:57;;;;;;;10.95;9.70;;;;;;;17.77;87.84;101327.88;5034009;28;20026;-86
2021/05/29 01:01:22;;;;;;;12.80;10.40;;;;;;;18.09;85.92;101323.47;5033687;28;20108;-86
2021/05/29 01:03:47;;;;;;;13.07;9.73;;;;;;;18.15;85.38;101317.66;5033637;28;20497;-86
2021/05/29 01:06:13;;;;;;;11.82;9.88;;;;;;;18.12;85.56;101324.06;5031931;28;20033;-86
2021/05/29 01:08:38;;;;;;;13.70;10.50;;;;;;;18.02;85.35;101320.50;5022874;28;20116;-86
2021/05/29 01:11:06;;;;;;;11.75;10.15;;;;;;;18.06;85.38;101318.44;5013600;28;20030;-86
2021/05/29 01:13:34;;;;;;;10.02;8.95;;;;;;;17.71;87.14;101324.88;5013867;28;20022;-86
2021/05/29 01:16:42;;;;;;;13.07;9.60;;;;;;;17.66;87.25;101332.38;5013515;28;20025;-86
2021/05/29 01:18:46;;;;;;;11.40;9.63;;;;;;;17.86;85.96;101328.09;5013015;28;20038;-86
2021/05/29 01:21:12;;;;;;;10.75;9.57;;;;;;;17.76;87.46;101330.66;5029486;28;20029;-86
2021/05/29 01:23:37;;;;;;;14.38;8.90;;;;;;;17.93;86.14;101338.06;5033523;28;20024;-86
2021/05/29 01:26:03;;;;;;;11.98;9.65;;;;;;;17.98;86.03;101338.50;5031703;28;20424;-86
2021/05/29 01:28:29;;;;;;;12.68;9.30;;;;;;;18.00;85.74;101341.88;5014997;28;20249;-86
2021/05/29 01:31:06;;;;;;;10.45;8.07;;;;;;;17.81;86.17;101337.25;5013177;28;20072;-86
2021/05/29 01:33:33;;;;;;;11.35;8.52;;;;;;;17.86;86.29;101349.34;5012771;28;20038;-86
2021/05/29 01:36:08;;;;;;;9.32;8.38;;;;;;;17.78;86.73;101345.47;5013478;28;20030;-86
2021/05/29 01:38:35;;;;;;;9.63;7.65;;;;;;;17.87;86.37;101351.00;5012383;28;20026;-86
2021/05/29 01:41:09;;;;;;;9.57;8.35;;;;;;;17.61;87.96;101351.34;5018551;28;20033;-86
2021/05/29 01:43:36;;;;;;;9.63;8.43;;;;;;;17.80;87.07;101354.16;5014545;28;20030;-86
2021/05/29 01:46:02;;;;;;;12.00;9.73;;;;;;;17.58;88.11;101352.44;5013200;28;20025;-86
2021/05/29 01:48:33;;;;;;;11.98;10.73;;;;;;;17.53;88.87;101343.16;5013269;28;20087;-86
2021/05/29 01:50:59;;;;;;;10.90;9.48;;;;;;;17.72;87.59;101353.13;5013101;28;20026;-86
2021/05/29 01:53:24;;;;;;;10.43;9.20;;;;;;;17.68;87.18;101355.19;5013254;28;20045;-86
2021/05/29 01:55:50;;;;;;;10.00;8.95;;;;;;;17.96;85.53;101350.25;5032794;28;20021;-85
2021/05/29 01:58:16;;;;;;;11.85;9.80;;;;;;;18.08;85.04;101354.53;5018050;28;20038;-86
2021/05/29 02:00:42;;;;;;;13.75;9.50;;;;;;;17.47;88.75;101348.97;5014155;28;20049;-86
2021/05/29 02:03:08;;;;;;;13.82;11.23;;;;;;;17.43;89.43;101348.38;5032723;28;20029;-86
2021/05/29 02:05:34;;;;;;;11.40;10.27;;;;;;;17.47;88.92;101348.97;5032602;28;20384;-86
2021/05/29 02:08:05;;;;;;;12.68;11.20;;;;;;;17.49;88.90;101341.75;5033015;28;20040;-86
2021/05/29 02:10:32;;;;;;;14.98;11.52;;;;;;;17.24;90.65;101343.75;5029523;28;20399;-85
2021/05/29 02:13:00;;;;;;;13.88;11.00;;;;;;;17.08;91.21;101349.47;5017509;28;20169;-85
2021/05/29 02:15:31;;;;;;;13.23;11.05;;;;;;;16.99;92.60;101350.19;5011258;28;20026;-85
2021/05/29 02:17:59;;;;;;;18.38;11.95;;;;;;;16.91;92.41;101348.16;5011234;28;20419;-85
2021/05/29 02:20:41;;;;;;;17.40;12.43;;;;;;;16.92;93.05;101349.81;5012620;28;20041;-85
2021/05/29 02:23:07;;;;;;;13.73;11.65;;;;;;;17.16;90.90;101356.78;5029847;28;20108;-85
2021/05/29 02:25:33;;;;;;;12.93;11.52;;;;;;;17.20;90.77;101359.09;5032388;28;20470;-85
2021/05/29 02:27:58;;;;;;;13.05;10.80;;;;;;;17.23;90.73;101360.63;5030609;28;20104;-85
2021/05/29 02:30:24;;;;;;;14.98;12.20;;;;;;;17.22;90.74;101356.31;5032109;28;20036;-85
2021/05/29 02:32:50;;;;;;;19.95;14.00;;;;;;;17.23;90.56;101363.28;5032297;28;20475;-85
2021/05/29 02:35:15;;;;;;;16.33;12.85;;;;;;;17.23;90.66;101366.78;5032396;28;20022;-86
2021/05/29 02:37:42;;;;;;;16.90;13.15;;;;;;;17.24;90.62;101365.00;5016230;28;20028;-85
2021/05/29 02:40:08;;;;;;;16.58;14.23;;;;;;;16.99;91.77;101361.63;5012618;28;20034;-85
2021/05/29 02:42:33;;;;;;;18.40;14.07;;;;;;;17.12;91.38;101365.97;5013595;28;20041;-85
2021/05/29 02:44:58;;;;;;;16.80;13.55;;;;;;;17.19;91.01;101361.84;4991405;28;20034;-85
2021/05/29 02:47:24;;;;;;;17.85;13.88;;;;;;;17.20;91.04;101363.53;4993049;28;20184;-85
2021/05/29 02:49:49;;;;;;;19.88;15.30;;;;;;;17.19;90.78;101364.50;5018195;28;20383;-85
2021/05/29 02:52:16;;;;;;;15.38;12.20;;;;;;;17.01;91.74;101365.00;5032260;28;20471;-85
2021/05/29 02:54:42;;;;;;;18.08;13.85;;;;;;;17.16;91.46;101368.25;5030354;28;20021;-85
2021/05/29 02:57:12;;;;;;;19.33;13.68;;;;;;;17.22;90.72;101367.75;5031962;28;20029;-85
2021/05/29 02:59:38;;;;;;;16.88;13.70;;;;;;;17.08;91.63;101375.13;5025778;28;20058;-85
2021/05/29 03:02:08;;;;;;;15.95;13.00;;;;;;;17.17;91.53;101366.44;5031822;28;20051;-85
2021/05/29 03:04:35;;;;;;;18.83;13.60;;;;;;;17.23;90.97;101365.94;5032133;28;20029;-85
2021/05/29 03:07:01;;;;;;;16.25;13.48;;;;;;;17.24;91.03;101365.00;5031968;28;20025;-85
2021/05/29 03:09:27;;;;;;;15.30;12.75;;;;;;;17.22;91.06;101367.75;5032014;28;20040;-85
2021/05/29 03:11:54;;;;;;;18.02;13.43;;;;;;;17.03;92.75;101371.03;5030400;28;20450;-85
2021/05/29 03:14:19;;;;;;;15.52;12.90;;;;;;;17.26;90.95;101368.38;5030697;28;20037;-85
2021/05/29 03:16:45;;;;;;;16.88;12.93;;;;;;;17.08;92.12;101359.22;5012198;28;20400;-85
2021/05/29 03:19:10;;;;;;;15.05;12.27;;;;;;;16.90;93.54;101365.00;5012186;28;20038;-86
2021/05/29 03:21:36;;;;;;;19.33;15.40;;;;;;;17.06;92.75;101369.94;5012229;28;20052;-85
2021/05/29 03:24:01;;;;;;;19.35;16.38;;;;;;;17.16;91.78;101370.03;5011657;28;20062;-85
2021/05/29 03:26:26;;;;;;;19.92;15.38;;;;;;;17.24;91.32;101368.47;5011973;28;20085;-85
2021/05/29 03:28:52;;;;;;;19.02;16.48;;;;;;;16.90;92.78;101359.72;5012059;28;20033;-85
2021/05/29 03:31:18;;;;;;;20.17;16.08;;;;;;;16.96;92.73;101371.66;5014764;28;20029;-85
2021/05/29 03:33:44;;;;;;;22.73;17.02;;;;;;;17.12;92.01;101371.25;5012241;28;20169;-85
2021/05/29 03:36:09;;;;;;;17.85;15.07;;;;;;;17.07;91.76;101365.50;5012128;28;20116;-86
2021/05/29 03:38:35;;;;;;;18.67;15.68;;;;;;;17.00;92.10;101371.31;5016437;28;20025;-86
2021/05/29 03:41:01;;;;;;;15.45;13.77;;;;;;;16.81;93.74;101365.72;5031606;28;20037;-86
2021/05/29 03:43:26;;;;;;;16.67;14.20;;;;;;;16.75;94.49;101366.22;5031655;28;20029;-86
2021/05/29 03:45:52;;;;;;;15.60;13.77;;;;;;;16.74;95.32;101372.47;5030837;28;20029;-86
2021/05/29 03:48:17;;;;;;;16.58;13.65;;;;;;;16.71;95.11;101373.56;5031635;28;20064;-86
2021/05/29 03:50:43;;;;;;;17.88;12.82;;;;;;;16.82;94.39;101370.97;5014350;28;20113;-86
2021/05/29 03:53:09;;;;;;;16.83;13.50;;;;;;;17.08;92.97;101385.75;5012256;28;20042;-86
2021/05/29 03:55:35;;;;;;;16.83;14.85;;;;;;;17.11;91.62;101388.16;5011563;28;20033;-86
2021/05/29 03:58:01;;;;;;;20.23;15.70;;;;;;;16.90;93.75;101388.88;5024634;28;20029;-86
2021/05/29 04:00:28;;;;;;;20.40;16.63;;;;;;;16.96;93.49;101383.13;5034903;28;20033;-86
2021/05/29 04:02:53;;;;;;;19.02;16.55;;;;;;;16.79;94.59;101387.06;5035064;28;20029;-86
2021/05/29 04:05:20;;;;;;;21.80;16.77;;;;;;;16.72;94.90;101390.31;5033733;28;20048;-86
2021/05/29 04:07:46;;;;;;;19.05;16.25;;;;;;;16.68;95.48;101389.72;5033422;28;20507;-86
2021/05/29 04:10:38;;;;;;;21.27;17.35;;;;;;;16.70;95.45;101392.25;5034588;28;20480;-86
2021/05/29 04:13:03;;;;;;;25.80;19.40;;;;;;;16.80;94.92;101395.84;4993328;28;20046;-86
2021/05/29 04:15:29;;;;;;;20.42;17.58;;;;;;;16.76;94.83;101387.28;4995300;28;20073;-86
2021/05/29 04:17:55;;;;;;;22.70;18.38;;;;;;;16.78;95.33;101400.44;4995333;28;20014;-86
2021/05/29 04:20:22;;;;;;;23.20;18.63;;;;;;;17.04;93.26;101398.41;4995430;28;20038;-86
2021/05/29 04:22:48;;;;;;;24.42;19.15;;;;;;;17.09;92.82;101403.38;5006658;28;20037;-86
2021/05/29 04:25:17;;;;;;;23.13;19.05;;;;;;;17.18;91.99;101395.53;5026362;28;20045;-86
2021/05/29 04:27:43;;;;;;;25.05;18.77;;;;;;;17.21;91.91;101397.06;5014727;28;20412;-86
2021/05/29 04:30:12;;;;;;;26.58;20.73;;;;;;;17.22;91.64;101410.22;5014404;28;20030;-86
2021/05/29 04:32:38;;;;;;;27.83;21.80;;;;;;;17.22;91.95;101406.75;5014641;28;20022;-86
2021/05/29 04:35:05;;;;;;;29.70;21.83;;;;;;;17.21;92.07;101415.66;5015038;28;20025;-86
2021/05/29 04:37:31;;;;;;;25.25;20.00;;;;;;;17.12;92.77;101409.28;5018056;28;20036;-86
2021/05/29 04:39:56;;;;;;;24.05;19.25;;;;;;;17.18;92.32;101408.78;5020603;28;20112;-86
2021/05/29 04:42:22;;;;;;;20.33;16.80;;;;;;;17.14;92.27;101402.03;5014837;28;20026;-86
2021/05/29 04:44:47;;;;;;;21.23;16.85;;;;;;;17.25;91.78;101409.97;5014758;28;20515;-86
2021/05/29 04:47:13;;;;;;;19.77;15.95;;;;;;;17.36;91.28;101411.78;5014636;28;20026;-86
2021/05/29 04:49:38;;;;;;;20.60;16.85;;;;;;;17.55;89.81;101407.63;5014372;28;20101;-86
2021/05/29 04:52:04;;;;;;;21.30;17.55;;;;;;;17.56;89.54;101417.28;5016056;28;20121;-86
2021/05/29 04:54:31;;;;;;;22.83;19.48;;;;;;;17.62;89.68;101422.09;5031887;28;20104;-86
2021/05/29 04:56:56;;;;;;;24.00;20.30;;;;;;;17.64;89.50;101413.00;5033416;28;20471;-86
2021/05/29 04:59:21;;;;;;;30.25;22.23;;;;;;;17.60;89.76;101418.72;5030312;28;20084;-86
2021/05/29 05:01:47;;;;;;;33.53;21.30;;;;;;;17.70;89.46;101418.81;5014133;28;20025;-86
2021/05/29 05:04:13;;;;;;;29.00;20.75;;;;;;;17.59;90.21;101417.00;5014348;28;20026;-86
2021/05/29 05:06:38;;;;;;;26.00;22.25;;;;;;;17.75;89.51;101416.59;5014315;28;20024;-86
2021/05/29 05:09:04;;;;;;;27.75;21.50;;;;;;;17.92;88.00;101410.78;5013001;28;20113;-86
2021/05/29 05:11:30;;;;;;;29.25;23.38;;;;;;;17.96;87.76;101419.34;5026099;28;20021;-86
2021/05/29 05:13:55;;;;;;;28.15;22.73;;;;;;;17.98;86.94;101420.06;5033627;28;20409;-86
2021/05/29 05:16:21;;;;;;;24.33;20.70;;;;;;;17.92;88.44;101423.22;5033959;28;20060;-86
2021/05/29 05:18:46;;;;;;;29.35;24.48;;;;;;;17.95;87.97;101423.81;5033866;28;20160;-86
2021/05/29 05:21:11;;;;;;;27.90;23.02;;;;;;;18.00;87.40;101421.59;5018193;28;20014;-86
2021/05/29 05:23:37;;;;;;;29.90;23.70;;;;;;;17.97;87.35;101426.31;5013624;28;20105;-86
2021/05/29 05:26:03;;;;;;;26.83;22.25;;;;;;;18.04;87.33;101431.00;5021791;28;20107;-86
2021/05/29 05:28:29;;;;;;;27.15;21.73;;;;;;;18.08;86.55;101436.06;5029902;28;20025;-86
2021/05/29 05:30:57;;;;;;;29.23;22.42;;;;;;;17.94;88.05;101437.22;5013956;28;20018;-86
2021/05/29 05:33:24;;;;;;;25.90;21.60;;;;;;;18.10;86.82;101434.97;5013543;28;20061;-86
2021/05/29 05:35:50;;;;;;;25.88;21.10;;;;;;;18.20;86.04;101443.84;5013975;28;20030;-86
2021/05/29 05:38:17;;;;;;;25.60;20.67;;;;;;;18.29;84.97;101441.41;5014081;28;20404;-86
2021/05/29 05:40:42;;;;;;;26.15;21.58;;;;;;;18.32;84.59;101446.47;5014863;28;20076;-86
2021/05/29 05:43:08;;;;;;;28.15;22.92;;;;;;;18.53;82.25;101438.47;5015615;28;20030;-86
2021/05/29 05:45:33;;;;;;;24.33;20.70;;;;;;;18.71;81.18;101446.72;5033562;28;20057;-86
2021/05/29 05:47:59;;;;;;;23.67;20.15;;;;;;;18.93;80.89;101443.88;5032289;28;20032;-86
2021/05/29 05:50:25;;;;;;;28.20;22.00;;;;;;;19.20;78.94;101440.63;5029525;28;20029;-86
2021/05/29 05:52:50;;;;;;;29.13;21.02;;;;;;;19.00;80.31;101450.38;5002482;28;20122;-86
2021/05/29 05:55:16;;;;;;;25.25;19.63;;;;;;;19.03;81.20;101451.91;5012842;28;20100;-86
2021/05/29 05:57:42;;;;;;;23.80;19.80;;;;;;;19.05;80.77;101449.13;5012400;28;20029;-87
2021/05/29 06:00:13;;;;;;;24.55;20.88;;;;;;;19.11;80.94;101452.09;5012844;28;20038;-85
2021/05/29 06:02:39;;;;;;;20.13;17.77;;;;;;;19.24;80.76;101449.22;5013102;28;20117;-86
2021/05/29 06:05:05;;;;;;;22.77;18.98;;;;;;;18.94;80.72;101450.09;5012880;28;20113;-88
2021/05/29 06:07:31;;;;;;;25.38;19.05;;;;;;;19.10;81.12;101446.91;5012179;28;20026;-86
2021/05/29 06:09:56;;;;;;;21.77;18.67;;;;;;;19.10;80.99;101452.25;5030357;28;20045;-86
2021/05/29 06:12:21;;;;;;;23.02;19.20;;;;;;;19.20;80.10;101451.28;5020749;28;20060;-85
2021/05/29 06:20:16;;;;;;;20.77;16.13;;;;;;;19.36;78.86;101464.09;5014200;28;20088;-85
2021/05/29 06:22:41;;;;;;;26.00;18.77;;;;;;;19.46;77.70;101474.78;5016185;28;20030;-86
2021/05/29 06:25:13;;;;;;;23.40;19.52;;;;;;;19.54;76.95;101468.75;5019362;28;20032;-86
2021/05/29 06:27:39;;;;;;;22.48;17.90;;;;;;;19.42;76.06;101474.19;5012548;28;20018;-86
2021/05/29 06:30:07;;;;;;;24.83;19.52;;;;;;;19.20;77.79;101477.06;5012465;28;20076;-86
2021/05/29 06:32:33;;;;;;;20.52;17.85;;;;;;;19.19;78.88;101478.03;5012324;28;20117;-87
2021/05/29 06:34:58;;;;;;;23.42;18.83;;;;;;;19.44;76.73;101473.22;5012682;28;20072;-87
2021/05/29 06:37:23;;;;;;;22.80;18.17;;;;;;;19.66;75.69;101474.81;5011988;28;20101;-87
2021/05/29 06:39:49;;;;;;;22.27;18.35;;;;;;;19.80;74.43;101490.44;5022764;28;20053;-86
2021/05/29 06:42:15;;;;;;;27.20;18.70;;;;;;;19.96;73.89;101497.88;5029181;28;20021;-86
2021/05/29 06:44:40;;;;;;;22.63;19.95;;;;;;;19.64;75.24;101488.28;5030840;28;20025;-87
2021/05/29 06:47:06;;;;;;;26.73;18.70;;;;;;;19.67;75.08;101488.00;5030982;28;20029;-87
2021/05/29 06:49:34;;;;;;;23.25;17.85;;;;;;;19.90;74.48;101493.13;5031883;28;20057;-87
2021/05/29 06:52:06;;;;;;;21.17;16.20;;;;;;;20.02;74.06;101492.00;5022053;28;20035;-87
2021/05/29 06:59:59;;;;;;;19.65;17.30;;;;;;;20.03;74.33;101509.69;5020548;28;20451;-87
2021/05/29 07:02:25;;;;;;;22.80;17.08;;;;;;;20.18;72.93;101518.09;5014425;28;20026;-85
2021/05/29 07:04:53;;;;;;;20.27;15.57;;;;;;;20.21;73.79;101515.16;5011748;28;20174;-85
2021/05/29 07:07:19;;;;;;;20.40;16.20;;;;;;;20.26;73.17;101525.41;5012133;28;20026;-85
2021/05/29 07:09:45;;;;;;;17.73;15.13;;;;;;;20.33;72.93;101515.88;5011719;28;20045;-85
2021/05/29 07:12:10;;;;;;;19.02;15.27;;;;;;;20.47;70.70;101518.09;5021717;28;20045;-86
2021/05/29 07:14:36;;;;;;;17.63;15.43;;;;;;;20.63;70.16;101516.72;5021235;28;20041;-85
2021/05/29 07:17:04;;;;;;;18.70;14.45;;;;;;;20.75;67.84;101521.75;5005306;28;20038;-85
2021/05/29 07:19:29;;;;;;;18.48;14.48;;;;;;;20.81;66.81;101517.66;5019046;28;20014;-85
2021/05/29 07:21:55;;;;;;;19.92;14.35;;;;;;;20.99;66.77;101526.63;5019392;28;20038;-85
2021/05/29 07:24:21;;;;;;;16.90;13.55;;;;;;;21.09;67.22;101528.38;5017344;28;20034;-85
2021/05/29 07:26:47;;;;;;;16.02;12.88;;;;;;;21.32;65.68;101528.88;5027508;28;20503;-85
2021/05/29 07:29:13;;;;;;;16.27;11.52;;;;;;;21.58;64.57;101523.72;5013014;28;20038;-85
2021/05/29 07:31:38;;;;;;;16.92;12.90;;;;;;;21.73;65.50;101524.06;5020702;28;20029;-87
2021/05/29 07:34:04;;;;;;;14.15;12.65;;;;;;;22.10;61.63;101525.78;5026428;28;20025;-88
2021/05/29 07:36:29;;;;;;;13.93;10.45;;;;;;;22.67;56.49;101530.78;5018373;28;20112;-88
2021/05/29 07:38:55;;;;;;;13.93;10.35;;;;;;;22.84;56.12;101532.59;5018382;28;20025;-89
2021/05/29 07:41:23;;;;;;;11.13;8.60;;;;;;;23.14;55.05;101530.44;5026051;28;20109;-89
2021/05/29 07:43:49;;;;;;;11.43;9.48;;;;;;;23.47;51.44;101536.81;5018803;28;20029;-89
2021/05/29 07:46:16;;;;;;;10.93;7.30;;;;;;;23.59;50.89;101526.63;5018224;28;20026;-89
2021/05/29 07:48:42;;;;;;;12.07;7.20;;;;;;;23.92;50.89;101534.81;5024321;28;20113;-88
2021/05/29 07:51:09;;;;;;;9.55;7.10;;;;;;;24.04;46.61;101529.97;5028369;28;20137;-89
2021/05/29 07:53:40;;;;;;;10.13;6.55;;;;;;;24.40;44.99;101530.47;5019644;28;20113;-91
2021/05/29 07:56:11;;;;;;;7.18;5.85;;;;;;;24.35;45.46;101533.69;5024180;28;20033;-88
2021/05/29 07:58:41;;;;;;;10.20;7.22;;;;;;;24.04;45.68;101529.97;5022565;28;20092;-90
2021/05/29 08:01:06;;;;;;;10.10;6.53;;;;;;;24.29;44.89;101533.50;5024359;28;20034;-90
2021/05/29 08:03:32;;;;;;;7.40;5.43;;;;;;;24.27;43.94;101527.44;5032052;28;20479;-90
2021/05/29 08:05:58;;;;;;;7.30;5.75;;;;;;;24.27;43.21;101535.50;5019516;28;20028;-91
2021/05/29 08:08:25;;;;;;;7.90;5.93;;;;;;;23.93;45.68;101539.16;5022621;28;20036;-91
2021/05/29 08:10:53;;;;;;;6.53;5.60;;;;;;;23.89;46.35;101535.97;5020098;28;20069;-89
2021/05/29 08:13:19;;;;;;;9.98;5.35;;;;;;;24.40;44.53;101535.84;5021530;28;20384;-89
2021/05/29 08:15:46;;;;;;;9.38;4.90;;;;;;;24.67;43.21;101539.25;5019642;28;20100;-90
2021/05/29 08:18:12;;;;;;;6.25;4.45;;;;;;;24.27;44.69;101536.38;5022593;28;20021;-92
2021/05/29 08:20:38;;;;;;;7.32;4.13;;;;;;;24.93;43.38;101541.72;5025288;28;20025;-91
2021/05/29 08:23:05;;;;;;;5.18;4.50;;;;;;;25.02;41.65;101540.69;5019792;28;20025;-91
2021/05/29 08:25:31;;;;;;;6.32;4.13;;;;;;;25.18;41.58;101544.31;5017922;28;20030;-93
2021/05/29 08:27:57;;;;;;;6.63;4.05;;;;;;;25.58;39.58;101539.84;5020862;28;20044;-90
2021/05/29 08:30:23;;;;;;;4.30;3.88;;;;;;;25.89;38.69;101547.94;5019793;28;20486;-90
2021/05/29 08:32:49;;;;;;;6.97;4.13;;;;;;;26.05;37.82;101555.91;5018293;28;20443;-90
2021/05/29 08:35:14;;;;;;;6.53;3.65;;;;;;;26.56;36.60;101549.13;5014605;28;20393;-91
2021/05/29 08:37:42;;;;;;;5.10;2.78;;;;;;;27.98;34.65;101554.47;5023587;28;20472;-90
2021/05/29 08:40:09;;;;;;;5.22;3.13;;;;;;;28.71;32.72;101560.53;5033845;28;20026;-90
2021/05/29 08:42:35;;;;;;;4.97;3.00;;;;;;;29.49;30.17;101555.03;5023447;28;20083;-90
2021/05/29 08:45:00;;;;;;;5.45;2.65;;;;;;;30.30;30.33;101554.22;5022534;28;20014;-90
2021/05/29 08:47:26;;;;;;;3.95;1.63;;;;;;;30.56;29.09;101547.16;5024759;28;20389;-90
2021/05/29 08:49:52;;;;;;;2.63;1.90;;;;;;;31.36;27.12;101549.72;5022666;28;20038;-90
2021/05/29 08:52:18;;;;;;;2.40;1.52;;;;;;;32.29;25.94;101551.09;5028767;28;20026;-90
2021/05/29 08:54:44;;;;;;;4.30;1.27;;;;;;;32.66;25.33;101557.50;5027254;28;20026;-90
2021/05/29 08:57:09;;;;;;;2.53;1.50;;;;;;;32.55;24.67;101566.38;5032573;28;20026;-92
2021/05/29 08:59:34;;;;;;;1.50;1.20;;;;;;;32.81;24.60;101565.34;5043495;28;20091;-91
2021/05/29 09:02:02;;;;;;;2.92;1.50;;;;;;;32.89;23.83;101561.50;5045069;28;20079;-91
2021/05/29 09:04:27;;;;;;;2.28;1.52;;;;;;;33.17;23.97;101567.28;5017354;28;20063;-90
2021/05/29 09:06:53;;;;;;;2.67;1.83;;;;;;;32.90;24.49;101564.00;5009212;28;20057;-90
2021/05/29 09:09:19;;;;;;;2.92;1.27;;;;;;;33.53;26.06;101564.75;5019014;28;20062;-89
2021/05/29 09:11:57;;;;;;;2.08;1.50;;;;;;;34.46;22.66;101560.72;5025228;28;20022;-90
2021/05/29 09:14:32;;;;;;;3.25;1.67;;;;;;;34.20;22.13;101561.97;5020084;28;20022;-90
2021/05/29 09:17:04;;;;;;;3.50;1.45;;;;;;;34.20;23.01;101556.50;5022339;28;20029;-91
2021/05/29 09:19:56;;;;;;;1.42;1.30;;;;;;;34.28;24.54;101563.53;5029585;28;20026;-91
2021/05/29 09:22:26;;;;;;;3.22;1.38;;;;;;;34.94;21.14;101561.56;5029027;28;20052;-91
2021/05/29 09:24:58;;;;;;;5.68;1.10;;;;;;;34.14;21.88;101560.16;5028967;28;20022;-91
2021/05/29 09:27:23;;;;;;;1.92;1.08;;;;;;;32.55;23.55;101569.09;5030276;28;20030;-91
2021/05/29 09:29:49;;;;;;;1.70;1.10;;;;;;;31.86;24.22;101568.94;5014732;28;20125;-92
2021/05/29 09:32:14;;;;;;;2.25;1.10;;;;;;;32.19;24.22;101570.66;5035321;28;20038;-91
2021/05/29 09:35:00;;;;;;;1.38;0.80;;;;;;;31.86;23.40;101577.09;5017889;28;20380;-91
2021/05/29 09:37:28;;;;;;;1.45;0.80;;;;;;;31.35;24.71;101577.91;5026288;28;20026;-90
2021/05/29 09:40:00;;;;;;;0.77;0.70;;;;;;;31.53;24.30;101575.34;5022632;28;20029;-90
2021/05/29 09:42:34;;;;;;;0.95;0.65;;;;;;;31.62;23.67;101571.34;5024593;28;20380;-91
2021/05/29 09:45:19;;;;;;;2.10;0.73;;;;;;;32.05;23.88;101571.78;5022771;28;20022;-90
2021/05/29 09:48:11;;;;;;;1.80;1.02;;;;;;;32.58;23.74;101576.84;5020144;28;20155;-90
2021/05/29 09:51:02;;;;;;;1.80;1.00;;;;;;;33.00;24.24;101580.63;5020509;28;20042;-91
2021/05/29 09:53:31;;;;;;;2.13;0.93;;;;;;;33.81;23.02;101593.31;5016994;28;20400;-91
2021/05/29 09:55:56;;;;;;;2.38;0.90;;;;;;;33.27;23.05;101585.78;5018770;28;20046;-90
2021/05/29 09:58:59;;;;;;;2.38;1.05;;;;;;;33.02;24.23;101588.56;5011922;28;20085;-91
2021/05/29 10:01:46;;;;;;;3.70;1.38;;;;;;;33.51;22.57;101586.78;4993798;28;20023;-90
2021/05/29 10:04:12;;;;;;;2.78;1.58;;;;;;;33.09;23.67;101591.22;4993463;28;20050;-91
2021/05/29 10:06:37;;;;;;;2.65;1.23;;;;;;;32.60;23.80;101593.75;4995100;28;20037;-91
2021/05/29 10:09:04;;;;;;;4.07;1.25;;;;;;;32.34;24.03;101586.63;4993886;28;20136;-91
2021/05/29 10:11:31;;;;;;;2.60;1.27;;;;;;;31.92;24.96;101589.78;4993578;28;20384;-91
2021/05/29 10:13:57;;;;;;;5.22;1.40;;;;;;;31.36;25.64;101595.84;4993788;28;20058;-91
2021/05/29 10:16:24;;;;;;;5.35;1.50;;;;;;;30.86;25.71;101592.78;4993918;28;20120;-90
2021/05/29 10:18:53;;;;;;;1.55;1.10;;;;;;;31.35;25.54;101599.63;4993703;28;20556;-92
2021/05/29 10:21:19;;;;;;;3.85;1.25;;;;;;;30.89;25.43;101590.53;4993563;28;20488;-91
2021/05/29 10:23:46;;;;;;;2.63;1.60;;;;;;;30.87;25.89;101597.19;4993490;28;20133;-91
2021/05/29 10:26:13;;;;;;;4.63;1.73;;;;;;;31.40;25.59;101602.53;4993132;28;20034;-90
2021/05/29 10:28:39;;;;;;;3.97;1.67;;;;;;;31.24;26.07;101601.09;4992739;28;20026;-91
2021/05/29 10:31:05;;;;;;;2.40;1.83;;;;;;;31.63;25.98;101599.31;4993359;28;20049;-90
2021/05/29 10:33:41;;;;;;;3.25;1.60;;;;;;;32.11;25.54;101604.34;4993195;28;20037;-90
2021/05/29 10:36:07;;;;;;;5.15;2.38;;;;;;;32.15;25.31;101597.41;4993678;28;20045;-90
2021/05/29 10:38:46;;;;;;;4.30;2.42;;;;;;;31.99;26.14;101601.47;4993311;28;20125;-90
2021/05/29 10:41:11;;;;;;;5.05;1.88;;;;;;;31.86;26.54;101601.53;4993492;28;20068;-90
2021/05/29 10:43:37;;;;;;;2.67;1.95;;;;;;;31.82;26.90;101594.88;4993768;28;20383;-91
2021/05/29 10:46:09;;;;;;;3.25;1.98;;;;;;;32.38;26.38;101596.81;4993657;28;20075;-91
2021/05/29 10:48:47;;;;;;;3.42;1.73;;;;;;;33.04;25.39;101608.22;4993432;28;20030;-90
2021/05/29 10:51:13;;;;;;;3.50;2.03;;;;;;;33.07;25.09;101607.75;4993711;28;20045;-90
2021/05/29 10:53:43;;;;;;;4.20;2.28;;;;;;;32.49;25.53;101611.59;4992195;28;20532;-90
2021/05/29 10:56:23;;;;;;;4.03;2.40;;;;;;;32.76;25.50;101614.13;4993278;28;20449;-91
2021/05/29 10:59:06;;;;;;;6.43;2.63;;;;;;;33.07;25.88;101606.94;4993436;28;20031;-90
2021/05/29 11:01:44;;;;;;;6.68;2.00;;;;;;;32.73;26.01;101618.13;4993057;28;20042;-91
2021/05/29 11:04:19;;;;;;;3.67;2.30;;;;;;;32.97;25.47;101608.28;4993192;28;20061;-91
2021/05/29 11:06:49;;;;;;;4.70;2.58;;;;;;;32.53;26.35;101606.56;4994141;28;20027;-92
2021/05/29 11:09:15;;;;;;;5.38;2.13;;;;;;;32.30;26.98;101607.13;4997207;28;20117;-90
2021/05/29 11:11:47;;;;;;;2.88;2.50;;;;;;;32.18;26.66;101612.44;4997412;28;20084;-91
2021/05/29 11:14:27;;;;;;;4.35;2.90;;;;;;;32.04;26.78;101614.41;4996893;28;20026;-91
2021/05/29 11:16:53;;;;;;;6.43;2.78;;;;;;;32.34;26.60;101609.19;4995711;28;20121;-90
2021/05/29 11:19:21;;;;;;;7.32;3.13;;;;;;;32.55;26.83;101616.19;4996737;28;20110;-90
2021/05/29 11:22:07;;;;;;;8.27;3.17;;;;;;;32.73;26.76;101620.00;4996977;28;20033;-90
2021/05/29 11:24:39;;;;;;;5.20;3.28;;;;;;;33.08;25.64;101609.44;4996660;28;20029;-90
2021/05/29 11:27:06;;;;;;;5.82;2.75;;;;;;;33.93;24.63;101611.41;4996423;28;20109;-91
2021/05/29 11:29:57;;;;;;;8.25;3.20;;;;;;;34.42;24.24;101607.75;4996346;28;20052;-90